createdAt,value
2018-06-14T00:02:27.983Z,8.27
2018-06-14T00:04:57.624Z,6.57
2018-06-14T00:07:27.196Z,8.27
2018-06-14T00:09:56.641Z,8.33
2018-06-14T00:12:26.183Z,9.73
2018-06-14T00:14:55.769Z,7.40
2018-06-14T00:17:25.550Z,8.00
2018-06-14T00:19:55.103Z,8.90
2018-06-14T00:22:24.804Z,4.83
2018-06-14T00:24:54.425Z,10.27
2018-06-14T00:27:24.007Z,7.80
2018-06-14T00:29:53.608Z,7.97
2018-06-14T00:32:23.644Z,11.77
2018-06-14T00:34:53.382Z,6.23
2018-06-14T00:37:23.074Z,10.10
2018-06-14T00:39:52.663Z,8.83
2018-06-14T00:42:22.269Z,9.23
2018-06-14T00:44:51.857Z,8.37
2018-06-14T00:47:21.554Z,7.23
2018-06-14T00:49:51.128Z,7.87
2018-06-14T00:52:20.806Z,9.60
2018-06-14T00:54:50.345Z,9.67
2018-06-14T00:57:30.501Z,8.07
2018-06-14T01:00:00.151Z,8.37
2018-06-14T01:02:29.814Z,7.93
2018-06-14T01:04:59.430Z,8.23
2018-06-14T01:07:29.088Z,7.57
2018-06-14T01:09:58.713Z,8.17
2018-06-14T01:12:28.355Z,8.97
2018-06-14T01:14:57.964Z,8.13
2018-06-14T01:17:27.715Z,9.67
2018-06-14T01:19:57.277Z,6.40
2018-06-14T01:22:26.905Z,8.63
2018-06-14T01:24:56.479Z,10.57
2018-06-14T01:27:26.097Z,10.33
2018-06-14T01:29:55.746Z,9.43
2018-06-14T01:32:25.400Z,13.07
2018-06-14T01:34:54.971Z,9.33
2018-06-14T01:37:41.320Z,11.17
2018-06-14T01:40:10.988Z,11.13
2018-06-14T01:42:40.697Z,12.93
2018-06-14T01:45:10.258Z,10.50
2018-06-14T01:47:39.877Z,8.53
2018-06-14T01:50:09.500Z,9.43
2018-06-14T01:52:39.135Z,11.03
2018-06-14T01:55:08.773Z,10.37
2018-06-14T01:57:38.379Z,12.90
2018-06-14T02:00:08.023Z,8.40
2018-06-14T02:02:37.599Z,8.57
2018-06-14T02:05:07.236Z,9.03
2018-06-14T02:07:36.864Z,9.97
2018-06-14T02:10:06.509Z,7.30
2018-06-14T02:12:36.133Z,9.20
2018-06-14T02:15:06.081Z,9.27
2018-06-14T02:17:35.619Z,11.73
2018-06-14T02:20:05.754Z,11.87
2018-06-14T02:22:35.298Z,9.70
2018-06-14T02:25:04.922Z,8.03
2018-06-14T02:27:34.729Z,10.63
2018-06-14T02:30:04.955Z,12.27
2018-06-14T02:32:34.663Z,9.77
2018-06-14T02:35:04.914Z,10.50
2018-06-14T02:37:40.665Z,11.77
2018-06-14T02:40:12.160Z,9.77
2018-06-14T02:42:42.613Z,14.87
2018-06-14T02:45:12.317Z,12.37
2018-06-14T02:47:41.898Z,10.17
2018-06-14T02:50:11.537Z,11.87
2018-06-14T02:52:41.207Z,11.57
2018-06-14T02:55:10.796Z,13.20
2018-06-14T02:57:40.365Z,19.00
2018-06-14T03:00:10.363Z,12.93
2018-06-14T03:02:40.124Z,15.43
2018-06-14T03:05:09.870Z,16.53
2018-06-14T03:07:40.012Z,14.60
2018-06-14T03:10:09.721Z,12.97
2018-06-14T03:12:39.425Z,16.87
2018-06-14T03:15:09.048Z,15.50
2018-06-14T03:17:38.635Z,21.70
2018-06-14T03:20:08.263Z,15.47
2018-06-14T03:22:37.963Z,14.97
2018-06-14T03:25:07.569Z,14.77
2018-06-14T03:27:37.291Z,16.43
2018-06-14T03:30:07.030Z,17.23
2018-06-14T03:32:36.775Z,13.93
2018-06-14T03:35:06.406Z,14.33
2018-06-14T03:37:36.134Z,16.67
2018-06-14T03:40:05.833Z,15.70
2018-06-14T03:42:39.517Z,14.83
2018-06-14T03:45:09.138Z,15.93
2018-06-14T03:47:38.970Z,12.37
2018-06-14T03:50:08.716Z,13.73
2018-06-14T03:52:38.578Z,12.00
2018-06-14T03:55:08.297Z,12.97
2018-06-14T03:57:38.199Z,11.63
2018-06-14T04:00:07.921Z,13.80
2018-06-14T04:02:37.768Z,10.17
2018-06-14T04:05:07.433Z,10.10
2018-06-14T04:07:37.306Z,11.63
2018-06-14T04:10:07.020Z,10.93
2018-06-14T04:12:37.288Z,11.40
2018-06-14T04:15:07.128Z,8.80
2018-06-14T04:17:36.818Z,10.27
2018-06-14T04:20:06.515Z,9.23
2018-06-14T04:22:36.130Z,8.77
2018-06-14T04:25:05.949Z,9.07
2018-06-14T04:27:35.638Z,8.57
2018-06-14T04:30:05.379Z,9.20
2018-06-14T04:32:35.261Z,7.20
2018-06-14T04:35:05.093Z,7.13
2018-06-14T04:37:34.988Z,8.90
2018-06-14T04:40:05.596Z,9.30
2018-06-14T04:42:35.341Z,7.43
2018-06-14T04:45:05.358Z,6.87
2018-06-14T04:47:35.121Z,6.43
2018-06-14T04:50:04.470Z,7.63
2018-06-14T04:52:34.274Z,7.13
2018-06-14T04:55:03.924Z,7.17
2018-06-14T04:57:33.527Z,6.20
2018-06-14T05:00:03.352Z,9.07
2018-06-14T05:02:33.011Z,7.93
2018-06-14T05:05:02.849Z,8.70
2018-06-14T05:07:32.571Z,9.97
2018-06-14T05:10:02.214Z,8.37
2018-06-14T05:12:31.951Z,7.10
2018-06-14T05:15:01.796Z,7.53
2018-06-14T05:17:31.452Z,7.30
2018-06-14T05:20:01.240Z,7.10
2018-06-14T05:22:30.932Z,7.40
2018-06-14T05:25:01.160Z,8.83
2018-06-14T05:27:31.521Z,7.60
2018-06-14T05:30:01.357Z,6.70
2018-06-14T05:32:31.073Z,7.27
2018-06-14T05:35:00.702Z,5.50
2018-06-14T05:37:30.506Z,8.67
2018-06-14T05:40:00.922Z,4.97
2018-06-14T05:42:30.985Z,8.07
2018-06-14T05:45:01.441Z,5.33
2018-06-14T05:47:32.444Z,5.17
2018-06-14T05:50:02.777Z,6.20
2018-06-14T05:52:32.677Z,5.07
2018-06-14T05:55:02.368Z,7.53
2018-06-14T05:57:32.079Z,5.00
2018-06-14T06:00:01.816Z,5.87
2018-06-14T06:02:31.674Z,4.60
2018-06-14T06:05:01.647Z,8.03
2018-06-14T06:07:32.176Z,6.13
2018-06-14T06:10:01.974Z,6.83
2018-06-14T06:12:31.780Z,7.15
2018-06-14T06:15:01.763Z,7.80
2018-06-14T06:17:32.722Z,4.87
2018-06-14T06:20:02.695Z,4.87
2018-06-14T06:22:32.428Z,6.03
2018-06-14T06:25:02.312Z,7.73
2018-06-14T06:27:31.877Z,4.87
2018-06-14T06:30:01.470Z,4.95
2018-06-14T06:32:31.101Z,5.80
2018-06-14T06:35:00.770Z,6.20
2018-06-14T06:37:30.475Z,9.33
2018-06-14T06:39:59.767Z,4.60
2018-06-14T06:42:29.630Z,6.97
2018-06-14T06:44:59.302Z,5.15
2018-06-14T06:47:28.872Z,8.05
2018-06-14T06:49:58.756Z,6.97
2018-06-14T06:52:28.589Z,13.68
2018-06-14T06:54:58.256Z,7.35
2018-06-14T06:57:27.861Z,7.58
2018-06-14T06:59:57.619Z,6.72
2018-06-14T07:02:27.295Z,9.43
2018-06-14T07:04:56.964Z,6.60
2018-06-14T07:07:26.677Z,5.80
2018-06-14T07:09:56.373Z,8.60
2018-06-14T07:12:26.063Z,5.85
2018-06-14T07:14:55.886Z,5.40
2018-06-14T07:17:25.571Z,8.33
2018-06-14T07:19:55.205Z,8.28
2018-06-14T07:22:24.896Z,9.30
2018-06-14T07:24:54.752Z,9.95
2018-06-14T07:27:24.535Z,8.48
2018-06-14T07:29:54.780Z,10.58
2018-06-14T07:32:24.351Z,9.08
2018-06-14T07:34:54.471Z,8.45
2018-06-14T07:37:24.097Z,9.78
2018-06-14T07:39:54.543Z,8.55
2018-06-14T07:42:24.237Z,9.60
2018-06-14T07:44:55.137Z,8.88
2018-06-14T07:47:25.062Z,10.48
2018-06-14T07:49:55.083Z,12.95
2018-06-14T07:52:24.884Z,10.10
2018-06-14T07:54:54.836Z,8.88
2018-06-14T07:57:25.076Z,10.58
2018-06-14T07:59:55.245Z,9.98
2018-06-14T08:02:24.970Z,12.30
2018-06-14T08:04:55.501Z,12.18
2018-06-14T08:07:25.223Z,11.83
2018-06-14T08:09:55.207Z,12.25
2018-06-14T08:12:24.923Z,13.48
2018-06-14T08:14:54.526Z,13.60
2018-06-14T08:17:24.174Z,11.22
2018-06-14T08:19:54.729Z,12.00
2018-06-14T08:22:24.928Z,9.83
2018-06-14T08:24:54.758Z,9.15
2018-06-14T08:27:24.525Z,10.03
2018-06-14T08:29:54.283Z,9.28
2018-06-14T08:32:23.996Z,12.78
2018-06-14T08:34:53.802Z,10.23
2018-06-14T08:37:27.977Z,11.85
2018-06-14T08:39:58.201Z,9.85
2018-06-14T08:42:28.059Z,11.53
2018-06-14T08:44:58.658Z,10.25
2018-06-14T08:47:28.585Z,10.15
2018-06-14T08:49:58.758Z,12.53
2018-06-14T08:52:31.257Z,11.15
2018-06-14T08:55:01.293Z,10.72
2018-06-14T08:57:30.909Z,11.48
2018-06-14T09:00:01.019Z,12.40
2018-06-14T09:02:30.582Z,11.70
2018-06-14T09:05:00.585Z,8.43
2018-06-14T09:07:29.904Z,8.50
2018-06-14T09:09:59.944Z,9.83
2018-06-14T09:12:29.649Z,7.37
2018-06-14T09:14:59.446Z,8.58
2018-06-14T09:17:29.278Z,6.78
2018-06-14T09:19:58.926Z,7.08
2018-06-14T09:22:28.955Z,7.60
2018-06-14T09:24:58.563Z,7.33
2018-06-14T09:27:28.229Z,5.37
2018-06-14T09:29:58.048Z,8.23
2018-06-14T09:32:27.706Z,7.92
2018-06-14T09:34:57.278Z,5.70
2018-06-14T09:37:29.178Z,5.75
2018-06-14T09:39:58.798Z,7.73
2018-06-14T09:42:28.505Z,5.30
2018-06-14T09:44:58.165Z,6.53
2018-06-14T09:47:27.960Z,4.07
2018-06-14T09:49:57.550Z,6.33
2018-06-14T09:52:27.391Z,5.50
2018-06-14T09:54:56.101Z,7.42
2018-06-14T09:57:24.818Z,6.25
2018-06-14T09:59:53.418Z,6.80
2018-06-14T10:02:22.259Z,6.08
2018-06-14T10:04:50.907Z,7.03
2018-06-14T10:07:19.481Z,4.83
2018-06-14T10:09:47.731Z,5.83
2018-06-14T10:12:16.363Z,8.13
2018-06-14T10:14:44.986Z,8.10
2018-06-14T10:17:13.549Z,7.60
2018-06-14T10:19:42.334Z,5.27
2018-06-14T10:22:10.919Z,6.33
2018-06-14T10:24:39.507Z,5.93
2018-06-14T10:27:08.469Z,5.53
2018-06-14T10:29:37.100Z,7.00
2018-06-14T10:32:06.010Z,3.73
2018-06-14T10:34:34.663Z,4.03
2018-06-14T10:37:03.144Z,4.87
2018-06-14T10:39:31.761Z,6.37
2018-06-14T10:42:00.416Z,4.80
2018-06-14T10:44:28.940Z,4.70
2018-06-14T10:46:57.538Z,4.47
2018-06-14T10:49:25.760Z,5.20
2018-06-14T10:51:54.384Z,6.37
2018-06-14T10:54:23.040Z,5.10
2018-06-14T10:56:51.651Z,8.05
2018-06-14T10:59:20.212Z,6.33
2018-06-14T11:01:48.875Z,4.20
2018-06-14T11:04:17.457Z,5.92
2018-06-14T11:06:46.088Z,4.55
2018-06-14T11:09:14.654Z,5.15
2018-06-14T11:11:43.414Z,6.67
2018-06-14T11:14:12.449Z,3.97
2018-06-14T11:16:40.991Z,6.13
2018-06-14T11:19:10.078Z,6.60
2018-06-14T11:21:38.694Z,4.97
2018-06-14T11:24:07.228Z,8.47
2018-06-14T11:26:35.878Z,6.73
2018-06-14T11:29:04.532Z,6.20
2018-06-14T11:31:33.168Z,6.13
2018-06-14T11:34:01.788Z,6.23
2018-06-14T11:36:30.342Z,4.07
2018-06-14T11:38:58.608Z,4.10
2018-06-14T11:41:27.242Z,7.23
2018-06-14T11:43:55.825Z,6.83
2018-06-14T11:46:30.927Z,7.37
2018-06-14T11:48:59.616Z,6.60
2018-06-14T11:51:28.365Z,6.03
2018-06-14T11:53:56.934Z,6.43
2018-06-14T11:56:25.539Z,6.87
2018-06-14T11:58:54.173Z,6.50
2018-06-14T12:01:22.783Z,5.87
2018-06-14T12:03:51.507Z,6.67
2018-06-14T12:06:20.919Z,7.47
2018-06-14T12:08:49.752Z,5.37
2018-06-14T12:11:18.564Z,7.30
2018-06-14T12:13:47.379Z,8.90
2018-06-14T12:16:16.249Z,6.43
2018-06-14T12:18:44.960Z,7.57
2018-06-14T12:21:13.538Z,7.30
2018-06-14T12:23:42.194Z,5.97
2018-06-14T12:26:11.033Z,8.80
2018-06-14T12:28:39.668Z,8.20
2018-06-14T12:31:08.299Z,8.13
2018-06-14T12:33:36.907Z,8.50
2018-06-14T12:36:05.541Z,9.60
2018-06-14T12:38:34.269Z,6.67
2018-06-14T12:41:02.907Z,6.83
2018-06-14T12:43:31.570Z,6.27
2018-06-14T12:46:00.290Z,10.53
2018-06-14T12:48:28.941Z,8.00
2018-06-14T12:50:57.599Z,7.40
2018-06-14T12:53:26.239Z,5.73
2018-06-14T12:55:55.084Z,9.57
2018-06-14T12:58:23.674Z,7.33
2018-06-14T13:00:52.307Z,7.80
2018-06-14T13:03:21.307Z,4.80
2018-06-14T13:05:49.881Z,6.67
2018-06-14T13:08:18.683Z,8.87
2018-06-14T13:10:47.314Z,7.10
2018-06-14T13:13:16.047Z,7.00
2018-06-14T13:15:44.786Z,6.00
2018-06-14T13:18:13.307Z,5.13
2018-06-14T13:20:41.944Z,7.63
2018-06-14T13:23:10.573Z,6.70
2018-06-14T13:25:39.314Z,7.77
2018-06-14T13:28:07.898Z,4.77
2018-06-14T13:30:36.572Z,6.47
2018-06-14T13:33:05.258Z,6.50
2018-06-14T13:35:33.915Z,5.50
2018-06-14T13:38:02.637Z,7.90
2018-06-14T13:40:31.739Z,5.47
2018-06-14T13:42:59.997Z,5.13
2018-06-14T13:45:28.642Z,8.90
2018-06-14T13:47:57.227Z,6.90
2018-06-14T13:50:32.721Z,9.23
2018-06-14T13:53:01.250Z,5.80
2018-06-14T13:55:29.889Z,4.90
2018-06-14T13:57:58.471Z,8.07
2018-06-14T14:00:27.080Z,7.17
2018-06-14T14:02:55.698Z,5.93
2018-06-14T14:05:24.646Z,7.97
2018-06-14T14:07:53.291Z,8.50
2018-06-14T14:10:21.907Z,7.93
2018-06-14T14:12:50.510Z,8.50
2018-06-14T14:15:19.248Z,6.83
2018-06-14T14:17:47.871Z,7.40
2018-06-14T14:20:16.562Z,9.17
2018-06-14T14:22:45.395Z,6.43
2018-06-14T14:25:14.067Z,9.20
2018-06-14T14:27:42.694Z,11.07
2018-06-14T14:30:11.426Z,8.77
2018-06-14T14:32:40.197Z,9.53
2018-06-14T14:35:08.888Z,8.23
2018-06-14T14:37:37.549Z,9.97
2018-06-14T14:40:06.152Z,8.20
2018-06-14T14:42:34.698Z,8.73
2018-06-14T14:45:03.615Z,9.63
2018-06-14T14:47:32.375Z,8.83
2018-06-14T14:50:01.669Z,9.60
2018-06-14T14:52:30.279Z,8.47
2018-06-14T14:54:58.891Z,8.93
2018-06-14T14:57:27.971Z,9.13
2018-06-14T14:59:56.571Z,8.17
2018-06-14T15:02:25.232Z,8.10
2018-06-14T15:04:53.891Z,8.13
2018-06-14T15:07:22.522Z,8.07
2018-06-14T15:09:51.145Z,8.27
2018-06-14T15:12:19.726Z,10.63
2018-06-14T15:14:48.416Z,8.03
2018-06-14T15:17:17.150Z,8.70
2018-06-14T15:19:45.811Z,7.03
2018-06-14T15:22:14.424Z,9.93
2018-06-14T15:24:43.042Z,7.10
2018-06-14T15:27:11.698Z,7.53
2018-06-14T15:29:40.294Z,7.10
2018-06-14T15:32:09.121Z,8.63
2018-06-14T15:34:37.814Z,9.17
2018-06-14T15:37:06.737Z,7.77
2018-06-14T15:39:35.387Z,6.97
2018-06-14T15:42:04.000Z,11.07
2018-06-14T15:44:32.912Z,6.87
2018-06-14T15:47:01.544Z,9.17
2018-06-14T15:49:30.126Z,8.50
2018-06-14T15:51:58.723Z,8.83
2018-06-14T15:54:27.271Z,18.00
2018-06-14T15:56:55.876Z,10.23
2018-06-14T15:59:24.487Z,8.03
2018-06-14T16:01:53.100Z,11.07
2018-06-14T16:04:21.719Z,7.60
2018-06-14T16:06:50.333Z,9.97
2018-06-14T16:09:18.972Z,15.43
2018-06-14T16:11:47.578Z,10.23
2018-06-14T16:14:16.217Z,10.27
2018-06-14T16:16:44.843Z,11.07
2018-06-14T16:19:13.469Z,9.13
2018-06-14T16:21:42.108Z,8.70
2018-06-14T16:24:10.781Z,9.90
2018-06-14T16:26:39.346Z,9.47
2018-06-14T16:29:07.971Z,9.27
2018-06-14T16:31:36.899Z,8.93
2018-06-14T16:34:05.486Z,11.23
2018-06-14T16:36:34.091Z,9.77
2018-06-14T16:39:02.900Z,12.17
2018-06-14T16:41:31.587Z,11.83
2018-06-14T16:44:00.176Z,9.07
2018-06-14T16:46:28.788Z,13.70
2018-06-14T16:48:57.460Z,13.57
2018-06-14T16:51:26.049Z,12.33
2018-06-14T16:53:54.606Z,12.53
2018-06-14T16:56:23.199Z,14.23
2018-06-14T16:58:51.775Z,16.87
2018-06-14T17:01:20.357Z,22.10
2018-06-14T17:03:48.983Z,13.30
2018-06-14T17:06:17.662Z,21.73
2018-06-14T17:08:46.249Z,14.97
2018-06-14T17:11:15.008Z,14.60
2018-06-14T17:13:43.665Z,15.10
2018-06-14T17:16:12.243Z,14.23
2018-06-14T17:18:41.393Z,16.10
2018-06-14T17:21:10.107Z,14.87
2018-06-14T17:23:38.788Z,15.13
2018-06-14T17:26:07.472Z,19.53
2018-06-14T17:28:36.214Z,17.87
2018-06-14T17:31:04.500Z,18.93
2018-06-14T17:33:33.090Z,17.40
2018-06-14T17:36:01.811Z,17.57
2018-06-14T17:38:33.433Z,21.87
2018-06-14T17:41:02.175Z,15.93
2018-06-14T17:43:30.730Z,18.70
2018-06-14T17:45:59.386Z,17.53
2018-06-14T17:48:27.978Z,21.97
2018-06-14T17:50:56.222Z,19.90
2018-06-14T17:53:24.889Z,23.67
2018-06-14T17:55:53.478Z,21.60
2018-06-14T17:58:22.104Z,24.60
2018-06-14T18:00:50.755Z,22.77
2018-06-14T18:03:19.469Z,18.90
2018-06-14T18:05:48.455Z,23.40
2018-06-14T18:08:17.086Z,20.77
2018-06-14T18:10:45.776Z,24.40
2018-06-14T18:13:14.904Z,23.67
2018-06-14T18:15:43.575Z,24.00
2018-06-14T18:18:12.246Z,21.30
2018-06-14T18:20:40.874Z,24.60
2018-06-14T18:23:09.557Z,23.23
2018-06-14T18:25:38.196Z,24.87
2018-06-14T18:28:06.862Z,20.73
2018-06-14T18:30:35.593Z,23.73
2018-06-14T18:33:04.232Z,20.93
2018-06-14T18:35:32.557Z,22.60
2018-06-14T18:38:01.326Z,23.23
2018-06-14T18:40:30.353Z,21.40
2018-06-14T18:42:59.451Z,24.10
2018-06-14T18:45:28.112Z,22.13
2018-06-14T18:47:56.769Z,21.10
2018-06-14T18:50:25.536Z,22.37
2018-06-14T18:52:54.236Z,23.30
2018-06-14T18:55:22.905Z,22.10
2018-06-14T18:57:51.600Z,19.23
2018-06-14T19:00:19.895Z,19.60
2018-06-14T19:02:48.642Z,25.93
2018-06-14T19:05:17.289Z,22.93
2018-06-14T19:07:45.965Z,22.13
2018-06-14T19:10:14.767Z,23.50
2018-06-14T19:12:44.486Z,22.33
2018-06-14T19:15:13.564Z,22.00
2018-06-14T19:17:42.334Z,21.13
2018-06-14T19:20:11.045Z,22.50
2018-06-14T19:22:40.143Z,22.50
2018-06-14T19:25:08.850Z,22.03
2018-06-14T19:27:37.574Z,22.23
2018-06-14T19:30:06.288Z,23.73
2018-06-14T19:32:35.595Z,22.87
2018-06-14T19:35:06.079Z,24.07
2018-06-14T19:37:34.732Z,26.50
2018-06-14T19:40:03.537Z,20.63
2018-06-14T19:42:32.211Z,21.03
2018-06-14T19:45:00.866Z,25.57
2018-06-14T19:47:29.583Z,23.67
2018-06-14T19:49:58.330Z,25.67
2018-06-14T19:52:27.244Z,23.73
2018-06-14T19:54:56.239Z,22.33
2018-06-14T19:57:24.983Z,23.23
2018-06-14T19:59:53.702Z,30.07
2018-06-14T20:02:22.344Z,25.87
2018-06-14T20:04:51.052Z,30.43
2018-06-14T20:07:19.938Z,23.43
2018-06-14T20:09:48.706Z,25.47
2018-06-14T20:12:17.479Z,26.70
2018-06-14T20:14:46.142Z,28.13
2018-06-14T20:17:14.877Z,26.87
2018-06-14T20:19:43.603Z,25.43
2018-06-14T20:22:12.292Z,30.23
2018-06-14T20:24:40.907Z,29.63
2018-06-14T20:27:09.665Z,27.73
2018-06-14T20:29:38.401Z,27.33
2018-06-14T20:32:07.385Z,28.10
2018-06-14T20:34:36.123Z,30.20
2018-06-14T20:37:04.875Z,29.53
2018-06-14T20:39:33.726Z,31.50
2018-06-14T20:42:02.592Z,29.53
2018-06-14T20:44:33.856Z,28.00
2018-06-14T20:47:02.964Z,31.00
2018-06-14T20:49:37.369Z,28.43
2018-06-14T20:52:06.473Z,33.03
2018-06-14T20:54:38.751Z,30.93
2018-06-14T20:57:14.429Z,30.90
2018-06-14T20:59:43.096Z,28.57
2018-06-14T21:02:11.881Z,30.30
2018-06-14T21:04:41.194Z,27.90
2018-06-14T21:07:10.100Z,32.20
2018-06-14T21:09:43.533Z,32.77
2018-06-14T21:12:12.328Z,32.63
2018-06-14T21:14:41.086Z,30.60
2018-06-14T21:17:09.738Z,31.90
2018-06-14T21:19:38.440Z,32.50
2018-06-14T21:22:07.205Z,35.73
2018-06-14T21:24:36.524Z,34.20
2018-06-14T21:27:05.621Z,36.10
2018-06-14T21:29:35.071Z,38.73
2018-06-14T21:32:03.955Z,39.97
2018-06-14T21:34:32.596Z,38.17
2018-06-14T21:37:01.377Z,42.03
2018-06-14T21:39:31.000Z,38.23
2018-06-14T21:41:59.685Z,37.37
2018-06-14T21:44:28.419Z,38.87
2018-06-14T21:46:57.799Z,37.57
2018-06-14T21:49:26.532Z,39.30
2018-06-14T21:51:55.208Z,38.20
2018-06-14T21:54:24.029Z,36.77
2018-06-14T21:56:53.316Z,37.20
2018-06-14T21:59:21.956Z,39.83
2018-06-14T22:01:50.608Z,39.23
2018-06-14T22:04:19.400Z,36.83
2018-06-14T22:06:49.042Z,38.90
2018-06-14T22:09:17.950Z,40.63
2018-06-14T22:11:47.105Z,42.00
2018-06-14T22:14:15.869Z,41.00
2018-06-14T22:16:44.733Z,38.67
2018-06-14T22:19:13.474Z,41.00
2018-06-14T22:21:42.252Z,41.57
2018-06-14T22:24:11.290Z,42.87
2018-06-14T22:26:40.202Z,46.77
2018-06-14T22:29:09.249Z,46.43
2018-06-14T22:31:37.973Z,47.57
2018-06-14T22:34:18.367Z,53.20
2018-06-14T22:36:47.688Z,51.70
2018-06-14T22:39:23.044Z,53.40
2018-06-14T22:41:51.685Z,52.37
2018-06-14T22:44:20.389Z,61.80
2018-06-14T22:46:48.983Z,63.77
2018-06-14T22:49:17.687Z,63.57
2018-06-14T22:52:00.038Z,54.30
2018-06-14T22:54:28.723Z,59.53
2018-06-14T22:56:57.271Z,59.23
2018-06-14T22:59:25.868Z,62.50
2018-06-14T23:01:55.119Z,57.60
2018-06-14T23:04:28.037Z,58.30
2018-06-14T23:06:57.136Z,59.60
2018-06-14T23:10:48.618Z,56.57
2018-06-14T23:13:18.423Z,58.33
2018-06-14T23:15:47.051Z,59.20
2018-06-14T23:18:15.821Z,57.67
2018-06-14T23:20:44.609Z,57.13
2018-06-14T23:23:13.241Z,52.70
2018-06-14T23:25:41.866Z,62.43
2018-06-14T23:28:10.515Z,57.70
2018-06-14T23:30:39.328Z,56.97
2018-06-14T23:33:08.343Z,59.13
2018-06-14T23:35:37.077Z,51.70
2018-06-14T23:38:05.670Z,53.63
2018-06-14T23:40:34.214Z,53.47
2018-06-14T23:43:02.986Z,50.20
2018-06-14T23:45:31.594Z,52.93
2018-06-14T23:48:00.264Z,53.97
2018-06-14T23:50:28.850Z,52.93
2018-06-14T23:52:57.460Z,61.90
2018-06-14T23:55:26.178Z,53.27
2018-06-14T23:57:54.921Z,58.07
